sensor_id;sensor_type;location;lat;lon;timestamp;P1;durP1;ratioP1;P2;durP2;ratioP2
17079;SDS011;8655;57.106;-2.088;2023-06-01T00:00:58;1.85;;;1.60;;
17079;SDS011;8655;57.106;-2.088;2023-06-01T00:03:26;2.60;;;1.77;;
17079;SDS011;8655;57.106;-2.088;2023-06-01T00:05:54;2.45;;;1.98;;
17079;SDS011;8655;57.106;-2.088;2023-06-01T00:08:21;1.98;;;1.70;;
17079;SDS011;8655;57.106;-2.088;2023-06-01T00:10:48;1.60;;;1.50;;
17079;SDS011;8655;57.106;-2.088;2023-06-01T00:13:14;1.52;;;1.42;;
17079;SDS011;8655;57.106;-2.088;2023-06-01T00:15:39;2.00;;;1.80;;
17079;SDS011;8655;57.106;-2.088;2023-06-01T00:18:05;1.80;;;1.50;;
17079;SDS011;8655;57.106;-2.088;2023-06-01T00:20:33;1.75;;;1.63;;
17079;SDS011;8655;57.106;-2.088;2023-06-01T00:22:59;1.77;;;1.55;;
17079;SDS011;8655;57.106;-2.088;2023-06-01T00:25:25;1.70;;;1.60;;
17079;SDS011;8655;57.106;-2.088;2023-06-01T00:27:51;2.65;;;1.45;;
17079;SDS011;8655;57.106;-2.088;2023-06-01T00:30:17;2.67;;;1.50;;
17079;SDS011;8655;57.106;-2.088;2023-06-01T00:32:43;2.33;;;1.70;;
17079;SDS011;8655;57.106;-2.088;2023-06-01T00:35:08;2.03;;;1.50;;
17079;SDS011;8655;57.106;-2.088;2023-06-01T00:37:34;2.40;;;1.67;;
17079;SDS011;8655;57.106;-2.088;2023-06-01T00:40:00;2.67;;;1.85;;
17079;SDS011;8655;57.106;-2.088;2023-06-01T00:42:26;1.55;;;1.45;;
17079;SDS011;8655;57.106;-2.088;2023-06-01T00:44:51;1.98;;;1.70;;
17079;SDS011;8655;57.106;-2.088;2023-06-01T00:47:18;1.42;;;1.33;;
17079;SDS011;8655;57.106;-2.088;2023-06-01T00:49:44;1.60;;;1.50;;
17079;SDS011;8655;57.106;-2.088;2023-06-01T00:52:10;1.88;;;1.50;;
17079;SDS011;8655;57.106;-2.088;2023-06-01T00:54:38;2.40;;;1.40;;
17079;SDS011;8655;57.106;-2.088;2023-06-01T00:57:04;1.38;;;1.27;;
17079;SDS011;8655;57.106;-2.088;2023-06-01T00:59:31;1.55;;;1.45;;
17079;SDS011;8655;57.106;-2.088;2023-06-01T01:01:59;1.70;;;1.40;;
17079;SDS011;8655;57.106;-2.088;2023-06-01T01:04:24;1.60;;;1.50;;
17079;SDS011;8655;57.106;-2.088;2023-06-01T01:06:57;1.45;;;1.35;;
17079;SDS011;8655;57.106;-2.088;2023-06-01T01:12:34;1.67;;;1.45;;
17079;SDS011;8655;57.106;-2.088;2023-06-01T01:18:15;1.58;;;1.48;;
17079;SDS011;8655;57.106;-2.088;2023-06-01T01:20:51;1.40;;;1.30;;
17079;SDS011;8655;57.106;-2.088;2023-06-01T01:26:28;1.65;;;1.30;;
17079;SDS011;8655;57.106;-2.088;2023-06-01T01:29:15;1.77;;;1.50;;
17079;SDS011;8655;57.106;-2.088;2023-06-01T01:31:42;1.30;;;1.20;;
17079;SDS011;8655;57.106;-2.088;2023-06-01T01:34:12;2.22;;;1.30;;
17079;SDS011;8655;57.106;-2.088;2023-06-01T01:36:38;1.58;;;1.40;;
17079;SDS011;8655;57.106;-2.088;2023-06-01T01:39:05;2.38;;;1.30;;
17079;SDS011;8655;57.106;-2.088;2023-06-01T01:41:31;1.88;;;1.40;;
17079;SDS011;8655;57.106;-2.088;2023-06-01T01:43:56;2.58;;;1.30;;
17079;SDS011;8655;57.106;-2.088;2023-06-01T01:46:24;1.50;;;1.40;;
17079;SDS011;8655;57.106;-2.088;2023-06-01T01:51:57;1.55;;;1.10;;
17079;SDS011;8655;57.106;-2.088;2023-06-01T01:54:24;1.30;;;1.20;;
17079;SDS011;8655;57.106;-2.088;2023-06-01T01:56:52;1.27;;;1.17;;
17079;SDS011;8655;57.106;-2.088;2023-06-01T01:59:20;1.70;;;1.55;;
17079;SDS011;8655;57.106;-2.088;2023-06-01T02:01:46;1.38;;;1.27;;
17079;SDS011;8655;57.106;-2.088;2023-06-01T02:04:12;1.25;;;1.13;;
17079;SDS011;8655;57.106;-2.088;2023-06-01T02:06:38;1.40;;;1.20;;
17079;SDS011;8655;57.106;-2.088;2023-06-01T02:09:04;1.45;;;1.35;;
17079;SDS011;8655;57.106;-2.088;2023-06-01T02:11:34;1.55;;;1.30;;
17079;SDS011;8655;57.106;-2.088;2023-06-01T02:14:00;1.35;;;1.25;;
17079;SDS011;8655;57.106;-2.088;2023-06-01T02:16:26;1.40;;;1.30;;
17079;SDS011;8655;57.106;-2.088;2023-06-01T02:18:52;1.98;;;1.30;;
17079;SDS011;8655;57.106;-2.088;2023-06-01T02:21:18;1.23;;;1.13;;
17079;SDS011;8655;57.106;-2.088;2023-06-01T02:23:44;1.40;;;1.30;;
17079;SDS011;8655;57.106;-2.088;2023-06-01T02:26:09;1.38;;;1.27;;
17079;SDS011;8655;57.106;-2.088;2023-06-01T02:28:36;1.65;;;1.20;;
17079;SDS011;8655;57.106;-2.088;2023-06-01T02:31:03;1.92;;;1.30;;
17079;SDS011;8655;57.106;-2.088;2023-06-01T02:33:30;2.33;;;1.30;;
17079;SDS011;8655;57.106;-2.088;2023-06-01T02:35:56;1.30;;;1.17;;
17079;SDS011;8655;57.106;-2.088;2023-06-01T02:38:21;1.30;;;1.17;;
17079;SDS011;8655;57.106;-2.088;2023-06-01T02:40:47;1.83;;;1.30;;
17079;SDS011;8655;57.106;-2.088;2023-06-01T02:43:13;1.50;;;1.10;;
17079;SDS011;8655;57.106;-2.088;2023-06-01T02:45:38;1.40;;;1.20;;
17079;SDS011;8655;57.106;-2.088;2023-06-01T02:48:04;1.30;;;1.20;;
17079;SDS011;8655;57.106;-2.088;2023-06-01T02:50:30;1.27;;;1.17;;
17079;SDS011;8655;57.106;-2.088;2023-06-01T02:52:56;1.20;;;1.10;;
17079;SDS011;8655;57.106;-2.088;2023-06-01T02:55:21;1.60;;;1.20;;
17079;SDS011;8655;57.106;-2.088;2023-06-01T02:57:47;2.45;;;1.40;;
17079;SDS011;8655;57.106;-2.088;2023-06-01T03:00:13;1.15;;;1.05;;
17079;SDS011;8655;57.106;-2.088;2023-06-01T03:02:42;1.75;;;1.27;;
17079;SDS011;8655;57.106;-2.088;2023-06-01T03:05:11;1.05;;;1.00;;
17079;SDS011;8655;57.106;-2.088;2023-06-01T03:07:39;2.00;;;1.27;;
17079;SDS011;8655;57.106;-2.088;2023-06-01T03:10:09;0.80;;;0.80;;
17079;SDS011;8655;57.106;-2.088;2023-06-01T03:12:35;1.10;;;1.00;;
17079;SDS011;8655;57.106;-2.088;2023-06-01T03:15:02;1.27;;;0.95;;
17079;SDS011;8655;57.106;-2.088;2023-06-01T03:17:29;1.15;;;1.00;;
17079;SDS011;8655;57.106;-2.088;2023-06-01T03:19:55;1.00;;;0.90;;
17079;SDS011;8655;57.106;-2.088;2023-06-01T03:22:21;0.90;;;0.90;;
17079;SDS011;8655;57.106;-2.088;2023-06-01T03:24:47;1.13;;;0.95;;
17079;SDS011;8655;57.106;-2.088;2023-06-01T03:27:16;0.95;;;0.85;;
17079;SDS011;8655;57.106;-2.088;2023-06-01T03:29:41;1.20;;;1.10;;
17079;SDS011;8655;57.106;-2.088;2023-06-01T03:32:07;1.10;;;1.00;;
17079;SDS011;8655;57.106;-2.088;2023-06-01T03:34:33;1.08;;;0.90;;
17079;SDS011;8655;57.106;-2.088;2023-06-01T03:37:01;1.10;;;1.00;;
17079;SDS011;8655;57.106;-2.088;2023-06-01T03:39:29;1.33;;;1.10;;
17079;SDS011;8655;57.106;-2.088;2023-06-01T03:41:58;1.20;;;1.10;;
17079;SDS011;8655;57.106;-2.088;2023-06-01T03:44:24;0.80;;;0.80;;
17079;SDS011;8655;57.106;-2.088;2023-06-01T03:46:50;1.13;;;0.90;;
17079;SDS011;8655;57.106;-2.088;2023-06-01T03:49:16;1.80;;;1.10;;
17079;SDS011;8655;57.106;-2.088;2023-06-01T03:51:41;0.93;;;0.90;;
17079;SDS011;8655;57.106;-2.088;2023-06-01T03:54:07;0.90;;;0.90;;
17079;SDS011;8655;57.106;-2.088;2023-06-01T03:56:33;1.17;;;1.05;;
17079;SDS011;8655;57.106;-2.088;2023-06-01T03:58:58;0.98;;;0.90;;
17079;SDS011;8655;57.106;-2.088;2023-06-01T04:01:25;1.20;;;1.10;;
17079;SDS011;8655;57.106;-2.088;2023-06-01T04:03:54;0.80;;;0.80;;
17079;SDS011;8655;57.106;-2.088;2023-06-01T04:06:20;1.58;;;1.00;;
17079;SDS011;8655;57.106;-2.088;2023-06-01T04:08:46;1.35;;;1.00;;
17079;SDS011;8655;57.106;-2.088;2023-06-01T04:11:20;1.50;;;0.98;;
17079;SDS011;8655;57.106;-2.088;2023-06-01T04:13:47;0.90;;;0.83;;
17079;SDS011;8655;57.106;-2.088;2023-06-01T04:16:13;1.33;;;1.00;;
17079;SDS011;8655;57.106;-2.088;2023-06-01T04:18:40;1.05;;;0.95;;
17079;SDS011;8655;57.106;-2.088;2023-06-01T04:21:06;0.82;;;0.82;;
17079;SDS011;8655;57.106;-2.088;2023-06-01T04:23:34;1.00;;;0.90;;
17079;SDS011;8655;57.106;-2.088;2023-06-01T04:26:00;1.13;;;0.90;;
17079;SDS011;8655;57.106;-2.088;2023-06-01T04:28:27;1.10;;;1.00;;
17079;SDS011;8655;57.106;-2.088;2023-06-01T04:30:53;0.82;;;0.80;;
17079;SDS011;8655;57.106;-2.088;2023-06-01T04:33:20;0.90;;;0.90;;
17079;SDS011;8655;57.106;-2.088;2023-06-01T04:35:47;0.60;;;0.60;;
17079;SDS011;8655;57.106;-2.088;2023-06-01T04:38:13;0.98;;;0.90;;
17079;SDS011;8655;57.106;-2.088;2023-06-01T04:40:41;0.90;;;0.90;;
17079;SDS011;8655;57.106;-2.088;2023-06-01T04:43:10;0.70;;;0.70;;
17079;SDS011;8655;57.106;-2.088;2023-06-01T04:45:37;1.23;;;0.82;;
17079;SDS011;8655;57.106;-2.088;2023-06-01T04:48:04;1.35;;;0.90;;
17079;SDS011;8655;57.106;-2.088;2023-06-01T04:50:36;0.77;;;0.77;;
17079;SDS011;8655;57.106;-2.088;2023-06-01T04:53:02;1.08;;;0.90;;
17079;SDS011;8655;57.106;-2.088;2023-06-01T04:55:28;0.73;;;0.73;;
17079;SDS011;8655;57.106;-2.088;2023-06-01T04:57:55;1.27;;;0.90;;
17079;SDS011;8655;57.106;-2.088;2023-06-01T05:00:21;1.10;;;0.80;;
17079;SDS011;8655;57.106;-2.088;2023-06-01T05:02:48;0.70;;;0.70;;
17079;SDS011;8655;57.106;-2.088;2023-06-01T05:05:14;0.70;;;0.70;;
17079;SDS011;8655;57.106;-2.088;2023-06-01T05:07:41;1.00;;;0.90;;
17079;SDS011;8655;57.106;-2.088;2023-06-01T05:10:08;0.98;;;0.90;;
17079;SDS011;8655;57.106;-2.088;2023-06-01T05:12:35;0.98;;;0.77;;
17079;SDS011;8655;57.106;-2.088;2023-06-01T05:15:05;1.30;;;1.17;;
17079;SDS011;8655;57.106;-2.088;2023-06-01T05:17:32;0.70;;;0.68;;
17079;SDS011;8655;57.106;-2.088;2023-06-01T05:19:58;1.13;;;0.70;;
17079;SDS011;8655;57.106;-2.088;2023-06-01T05:22:24;1.02;;;0.93;;
17079;SDS011;8655;57.106;-2.088;2023-06-01T05:24:50;1.07;;;0.93;;
17079;SDS011;8655;57.106;-2.088;2023-06-01T05:27:16;0.88;;;0.73;;
17079;SDS011;8655;57.106;-2.088;2023-06-01T05:29:42;0.60;;;0.60;;
17079;SDS011;8655;57.106;-2.088;2023-06-01T05:32:08;0.88;;;0.75;;
17079;SDS011;8655;57.106;-2.088;2023-06-01T05:34:34;0.68;;;0.68;;
17079;SDS011;8655;57.106;-2.088;2023-06-01T05:37:01;0.85;;;0.85;;
17079;SDS011;8655;57.106;-2.088;2023-06-01T05:39:27;0.80;;;0.80;;
17079;SDS011;8655;57.106;-2.088;2023-06-01T05:41:56;1.27;;;0.82;;
17079;SDS011;8655;57.106;-2.088;2023-06-01T05:44:23;0.70;;;0.70;;
17079;SDS011;8655;57.106;-2.088;2023-06-01T05:46:49;0.98;;;0.80;;
17079;SDS011;8655;57.106;-2.088;2023-06-01T05:49:16;0.73;;;0.73;;
17079;SDS011;8655;57.106;-2.088;2023-06-01T05:51:42;0.70;;;0.68;;
17079;SDS011;8655;57.106;-2.088;2023-06-01T05:54:08;0.70;;;0.70;;
17079;SDS011;8655;57.106;-2.088;2023-06-01T05:56:34;1.03;;;0.80;;
17079;SDS011;8655;57.106;-2.088;2023-06-01T05:59:02;0.93;;;0.80;;
17079;SDS011;8655;57.106;-2.088;2023-06-01T06:01:27;0.70;;;0.70;;
17079;SDS011;8655;57.106;-2.088;2023-06-01T06:03:53;0.65;;;0.60;;
17079;SDS011;8655;57.106;-2.088;2023-06-01T06:06:20;0.60;;;0.60;;
17079;SDS011;8655;57.106;-2.088;2023-06-01T06:08:47;0.85;;;0.65;;
17079;SDS011;8655;57.106;-2.088;2023-06-01T06:11:13;0.70;;;0.70;;
17079;SDS011;8655;57.106;-2.088;2023-06-01T06:13:39;0.90;;;0.90;;
17079;SDS011;8655;57.106;-2.088;2023-06-01T06:16:05;1.00;;;0.70;;
17079;SDS011;8655;57.106;-2.088;2023-06-01T06:18:31;0.80;;;0.80;;
17079;SDS011;8655;57.106;-2.088;2023-06-01T06:20:56;0.70;;;0.60;;
17079;SDS011;8655;57.106;-2.088;2023-06-01T06:23:22;1.55;;;0.90;;
17079;SDS011;8655;57.106;-2.088;2023-06-01T06:25:48;0.85;;;0.70;;
17079;SDS011;8655;57.106;-2.088;2023-06-01T06:28:14;0.80;;;0.80;;
17079;SDS011;8655;57.106;-2.088;2023-06-01T06:30:40;1.15;;;0.90;;
17079;SDS011;8655;57.106;-2.088;2023-06-01T06:33:06;0.83;;;0.73;;
17079;SDS011;8655;57.106;-2.088;2023-06-01T06:35:32;0.88;;;0.70;;
17079;SDS011;8655;57.106;-2.088;2023-06-01T06:37:57;0.85;;;0.80;;
17079;SDS011;8655;57.106;-2.088;2023-06-01T06:40:23;1.48;;;0.85;;
17079;SDS011;8655;57.106;-2.088;2023-06-01T06:42:49;1.02;;;0.80;;
17079;SDS011;8655;57.106;-2.088;2023-06-01T06:45:15;1.02;;;0.60;;
17079;SDS011;8655;57.106;-2.088;2023-06-01T06:47:42;0.90;;;0.80;;
17079;SDS011;8655;57.106;-2.088;2023-06-01T06:50:10;0.73;;;0.70;;
17079;SDS011;8655;57.106;-2.088;2023-06-01T06:52:36;1.45;;;0.80;;
17079;SDS011;8655;57.106;-2.088;2023-06-01T06:55:02;0.80;;;0.80;;
17079;SDS011;8655;57.106;-2.088;2023-06-01T06:57:28;1.05;;;0.90;;
17079;SDS011;8655;57.106;-2.088;2023-06-01T06:59:54;1.17;;;0.80;;
17079;SDS011;8655;57.106;-2.088;2023-06-01T07:02:19;1.35;;;0.80;;
17079;SDS011;8655;57.106;-2.088;2023-06-01T07:04:45;1.02;;;0.80;;
17079;SDS011;8655;57.106;-2.088;2023-06-01T07:07:11;1.08;;;0.88;;
17079;SDS011;8655;57.106;-2.088;2023-06-01T07:09:37;0.77;;;0.73;;
17079;SDS011;8655;57.106;-2.088;2023-06-01T07:12:03;0.80;;;0.77;;
17079;SDS011;8655;57.106;-2.088;2023-06-01T07:14:29;1.15;;;0.93;;
17079;SDS011;8655;57.106;-2.088;2023-06-01T07:16:54;1.30;;;0.87;;
17079;SDS011;8655;57.106;-2.088;2023-06-01T07:19:20;1.20;;;0.80;;
17079;SDS011;8655;57.106;-2.088;2023-06-01T07:21:46;0.88;;;0.70;;
17079;SDS011;8655;57.106;-2.088;2023-06-01T07:24:12;2.05;;;0.80;;
17079;SDS011;8655;57.106;-2.088;2023-06-01T07:26:38;3.38;;;0.82;;
17079;SDS011;8655;57.106;-2.088;2023-06-01T07:29:04;2.78;;;0.80;;
17079;SDS011;8655;57.106;-2.088;2023-06-01T07:31:31;1.40;;;0.77;;
17079;SDS011;8655;57.106;-2.088;2023-06-01T07:33:57;2.03;;;1.05;;
17079;SDS011;8655;57.106;-2.088;2023-06-01T07:36:23;0.70;;;0.65;;
17079;SDS011;8655;57.106;-2.088;2023-06-01T07:38:49;1.23;;;0.88;;
17079;SDS011;8655;57.106;-2.088;2023-06-01T07:41:15;1.30;;;0.88;;
17079;SDS011;8655;57.106;-2.088;2023-06-01T07:43:41;1.20;;;0.80;;
17079;SDS011;8655;57.106;-2.088;2023-06-01T07:46:07;1.05;;;0.80;;
17079;SDS011;8655;57.106;-2.088;2023-06-01T07:48:32;1.02;;;0.88;;
17079;SDS011;8655;57.106;-2.088;2023-06-01T07:51:02;1.70;;;1.05;;
17079;SDS011;8655;57.106;-2.088;2023-06-01T07:53:28;1.10;;;1.00;;
17079;SDS011;8655;57.106;-2.088;2023-06-01T07:55:54;1.63;;;0.90;;
17079;SDS011;8655;57.106;-2.088;2023-06-01T07:58:20;2.05;;;1.00;;
17079;SDS011;8655;57.106;-2.088;2023-06-01T08:00:46;1.57;;;0.97;;
17079;SDS011;8655;57.106;-2.088;2023-06-01T08:03:12;1.30;;;0.80;;
17079;SDS011;8655;57.106;-2.088;2023-06-01T08:05:37;2.20;;;1.00;;
17079;SDS011;8655;57.106;-2.088;2023-06-01T08:08:07;1.23;;;0.97;;
17079;SDS011;8655;57.106;-2.088;2023-06-01T08:10:34;1.42;;;1.00;;
17079;SDS011;8655;57.106;-2.088;2023-06-01T08:13:00;1.27;;;0.80;;
17079;SDS011;8655;57.106;-2.088;2023-06-01T08:15:27;1.95;;;0.95;;
17079;SDS011;8655;57.106;-2.088;2023-06-01T08:17:53;1.63;;;0.80;;
17079;SDS011;8655;57.106;-2.088;2023-06-01T08:20:19;1.80;;;0.82;;
17079;SDS011;8655;57.106;-2.088;2023-06-01T08:22:47;1.57;;;0.90;;
17079;SDS011;8655;57.106;-2.088;2023-06-01T08:25:13;0.95;;;0.85;;
17079;SDS011;8655;57.106;-2.088;2023-06-01T08:27:41;1.35;;;0.90;;
17079;SDS011;8655;57.106;-2.088;2023-06-01T08:30:07;1.88;;;1.00;;
17079;SDS011;8655;57.106;-2.088;2023-06-01T08:32:33;1.67;;;0.90;;
17079;SDS011;8655;57.106;-2.088;2023-06-01T08:34:59;1.83;;;0.90;;
17079;SDS011;8655;57.106;-2.088;2023-06-01T08:37:25;1.65;;;1.13;;
17079;SDS011;8655;57.106;-2.088;2023-06-01T08:39:51;1.10;;;0.90;;
17079;SDS011;8655;57.106;-2.088;2023-06-01T08:42:20;1.35;;;0.95;;
17079;SDS011;8655;57.106;-2.088;2023-06-01T08:44:56;1.33;;;1.00;;
17079;SDS011;8655;57.106;-2.088;2023-06-01T08:47:26;2.42;;;1.17;;
17079;SDS011;8655;57.106;-2.088;2023-06-01T08:49:53;1.60;;;1.00;;
17079;SDS011;8655;57.106;-2.088;2023-06-01T08:52:21;1.65;;;0.88;;
17079;SDS011;8655;57.106;-2.088;2023-06-01T08:54:53;2.83;;;1.10;;
17079;SDS011;8655;57.106;-2.088;2023-06-01T08:57:19;3.47;;;1.10;;
17079;SDS011;8655;57.106;-2.088;2023-06-01T08:59:45;2.07;;;1.00;;
17079;SDS011;8655;57.106;-2.088;2023-06-01T09:02:12;2.15;;;1.00;;
17079;SDS011;8655;57.106;-2.088;2023-06-01T09:04:39;2.33;;;1.10;;
17079;SDS011;8655;57.106;-2.088;2023-06-01T09:07:09;1.70;;;0.90;;
17079;SDS011;8655;57.106;-2.088;2023-06-01T09:09:36;1.33;;;0.93;;
17079;SDS011;8655;57.106;-2.088;2023-06-01T09:14:48;2.55;;;1.10;;
17079;SDS011;8655;57.106;-2.088;2023-06-01T09:17:14;0.70;;;0.60;;
17079;SDS011;8655;57.106;-2.088;2023-06-01T09:19:46;1.53;;;0.90;;
17079;SDS011;8655;57.106;-2.088;2023-06-01T09:22:12;1.80;;;1.00;;
17079;SDS011;8655;57.106;-2.088;2023-06-01T09:24:38;2.13;;;1.10;;
17079;SDS011;8655;57.106;-2.088;2023-06-01T09:27:07;1.60;;;1.00;;
17079;SDS011;8655;57.106;-2.088;2023-06-01T09:29:33;1.05;;;0.88;;
17079;SDS011;8655;57.106;-2.088;2023-06-01T09:32:00;2.03;;;1.45;;
17079;SDS011;8655;57.106;-2.088;2023-06-01T09:34:26;1.08;;;0.90;;
17079;SDS011;8655;57.106;-2.088;2023-06-01T09:36:52;2.50;;;1.03;;
17079;SDS011;8655;57.106;-2.088;2023-06-01T09:39:23;2.25;;;1.30;;
17079;SDS011;8655;57.106;-2.088;2023-06-01T09:41:50;1.63;;;1.02;;
17079;SDS011;8655;57.106;-2.088;2023-06-01T09:46:57;1.58;;;1.00;;
17079;SDS011;8655;57.106;-2.088;2023-06-01T09:49:28;2.13;;;1.05;;
17079;SDS011;8655;57.106;-2.088;2023-06-01T09:54:30;1.10;;;0.95;;
17079;SDS011;8655;57.106;-2.088;2023-06-01T09:57:00;1.80;;;1.08;;
17079;SDS011;8655;57.106;-2.088;2023-06-01T09:59:27;0.80;;;0.80;;
17079;SDS011;8655;57.106;-2.088;2023-06-01T10:01:55;1.35;;;1.05;;
17079;SDS011;8655;57.106;-2.088;2023-06-01T10:04:23;1.05;;;0.80;;
17079;SDS011;8655;57.106;-2.088;2023-06-01T10:06:54;1.23;;;0.90;;
17079;SDS011;8655;57.106;-2.088;2023-06-01T10:09:21;1.33;;;1.08;;
17079;SDS011;8655;57.106;-2.088;2023-06-01T10:11:50;1.33;;;1.00;;
17079;SDS011;8655;57.106;-2.088;2023-06-01T10:14:19;1.30;;;1.00;;
17079;SDS011;8655;57.106;-2.088;2023-06-01T10:16:46;2.38;;;1.25;;
17079;SDS011;8655;57.106;-2.088;2023-06-01T10:19:17;1.75;;;1.30;;
17079;SDS011;8655;57.106;-2.088;2023-06-01T10:21:45;1.63;;;0.93;;
17079;SDS011;8655;57.106;-2.088;2023-06-01T10:24:11;2.10;;;1.00;;
17079;SDS011;8655;57.106;-2.088;2023-06-01T10:29:37;2.47;;;1.10;;
17079;SDS011;8655;57.106;-2.088;2023-06-01T10:32:03;1.35;;;0.85;;
17079;SDS011;8655;57.106;-2.088;2023-06-01T10:34:39;1.42;;;0.90;;
17079;SDS011;8655;57.106;-2.088;2023-06-01T10:39:33;1.10;;;0.90;;
17079;SDS011;8655;57.106;-2.088;2023-06-01T10:47:06;2.20;;;1.00;;
17079;SDS011;8655;57.106;-2.088;2023-06-01T10:57:45;2.25;;;1.08;;
17079;SDS011;8655;57.106;-2.088;2023-06-01T11:00:15;2.78;;;1.13;;
17079;SDS011;8655;57.106;-2.088;2023-06-01T11:05:38;2.58;;;1.10;;
17079;SDS011;8655;57.106;-2.088;2023-06-01T11:11:00;2.05;;;1.10;;
17079;SDS011;8655;57.106;-2.088;2023-06-01T11:21:14;2.15;;;1.20;;
17079;SDS011;8655;57.106;-2.088;2023-06-01T11:23:41;1.95;;;1.08;;
17079;SDS011;8655;57.106;-2.088;2023-06-01T11:26:09;3.08;;;0.90;;
17079;SDS011;8655;57.106;-2.088;2023-06-01T11:28:38;2.33;;;1.00;;
17079;SDS011;8655;57.106;-2.088;2023-06-01T11:31:08;1.40;;;0.90;;
17079;SDS011;8655;57.106;-2.088;2023-06-01T11:33:35;1.85;;;1.00;;
17079;SDS011;8655;57.106;-2.088;2023-06-01T11:36:04;1.42;;;1.00;;
17079;SDS011;8655;57.106;-2.088;2023-06-01T11:38:40;1.77;;;1.00;;
17079;SDS011;8655;57.106;-2.088;2023-06-01T11:41:07;2.60;;;0.98;;
17079;SDS011;8655;57.106;-2.088;2023-06-01T11:43:34;2.60;;;1.20;;
17079;SDS011;8655;57.106;-2.088;2023-06-01T11:46:07;1.83;;;1.20;;
17079;SDS011;8655;57.106;-2.088;2023-06-01T11:48:34;2.03;;;1.17;;
17079;SDS011;8655;57.106;-2.088;2023-06-01T11:51:01;1.43;;;0.80;;
17079;SDS011;8655;57.106;-2.088;2023-06-01T11:53:28;2.35;;;1.23;;
17079;SDS011;8655;57.106;-2.088;2023-06-01T11:55:58;1.85;;;1.20;;
17079;SDS011;8655;57.106;-2.088;2023-06-01T11:58:27;1.00;;;0.80;;
17079;SDS011;8655;57.106;-2.088;2023-06-01T12:00:54;1.55;;;1.00;;
17079;SDS011;8655;57.106;-2.088;2023-06-01T12:03:21;2.15;;;1.02;;
17079;SDS011;8655;57.106;-2.088;2023-06-01T12:05:49;1.35;;;0.98;;
17079;SDS011;8655;57.106;-2.088;2023-06-01T12:10:49;1.50;;;0.98;;
17079;SDS011;8655;57.106;-2.088;2023-06-01T12:13:18;1.40;;;0.93;;
17079;SDS011;8655;57.106;-2.088;2023-06-01T12:15:45;1.58;;;1.05;;
17079;SDS011;8655;57.106;-2.088;2023-06-01T12:18:11;1.02;;;0.85;;
17079;SDS011;8655;57.106;-2.088;2023-06-01T12:20:38;2.15;;;0.93;;
17079;SDS011;8655;57.106;-2.088;2023-06-01T12:25:51;1.73;;;1.15;;
17079;SDS011;8655;57.106;-2.088;2023-06-01T12:28:22;2.33;;;1.10;;
17079;SDS011;8655;57.106;-2.088;2023-06-01T12:30:48;2.42;;;1.13;;
17079;SDS011;8655;57.106;-2.088;2023-06-01T12:33:33;0.70;;;0.70;;
17079;SDS011;8655;57.106;-2.088;2023-06-01T12:36:01;1.63;;;1.15;;
17079;SDS011;8655;57.106;-2.088;2023-06-01T12:38:28;1.77;;;1.00;;
17079;SDS011;8655;57.106;-2.088;2023-06-01T12:41:06;1.33;;;0.75;;
17079;SDS011;8655;57.106;-2.088;2023-06-01T12:43:55;1.83;;;0.77;;
17079;SDS011;8655;57.106;-2.088;2023-06-01T12:46:25;1.13;;;0.70;;
17079;SDS011;8655;57.106;-2.088;2023-06-01T12:48:53;1.00;;;0.90;;
17079;SDS011;8655;57.106;-2.088;2023-06-01T12:51:20;1.90;;;0.98;;
17079;SDS011;8655;57.106;-2.088;2023-06-01T12:53:47;1.42;;;0.77;;
17079;SDS011;8655;57.106;-2.088;2023-06-01T12:56:12;2.22;;;1.00;;
17079;SDS011;8655;57.106;-2.088;2023-06-01T12:58:39;1.60;;;0.80;;
17079;SDS011;8655;57.106;-2.088;2023-06-01T13:01:05;1.90;;;1.00;;
17079;SDS011;8655;57.106;-2.088;2023-06-01T13:03:31;1.93;;;0.97;;
17079;SDS011;8655;57.106;-2.088;2023-06-01T13:05:57;3.15;;;0.80;;
17079;SDS011;8655;57.106;-2.088;2023-06-01T13:08:23;1.67;;;1.00;;
17079;SDS011;8655;57.106;-2.088;2023-06-01T13:10:49;2.33;;;0.80;;
17079;SDS011;8655;57.106;-2.088;2023-06-01T13:13:15;1.48;;;0.93;;
17079;SDS011;8655;57.106;-2.088;2023-06-01T13:15:44;1.47;;;0.90;;
17079;SDS011;8655;57.106;-2.088;2023-06-01T13:18:11;1.95;;;1.20;;
17079;SDS011;8655;57.106;-2.088;2023-06-01T13:20:37;2.23;;;1.00;;
17079;SDS011;8655;57.106;-2.088;2023-06-01T13:23:06;1.92;;;0.98;;
17079;SDS011;8655;57.106;-2.088;2023-06-01T13:25:33;1.67;;;0.90;;
17079;SDS011;8655;57.106;-2.088;2023-06-01T13:27:59;2.13;;;1.15;;
17079;SDS011;8655;57.106;-2.088;2023-06-01T13:30:26;1.80;;;1.15;;
17079;SDS011;8655;57.106;-2.088;2023-06-01T13:32:53;1.63;;;1.00;;
17079;SDS011;8655;57.106;-2.088;2023-06-01T13:35:20;2.45;;;1.00;;
17079;SDS011;8655;57.106;-2.088;2023-06-01T13:37:45;1.50;;;0.80;;
17079;SDS011;8655;57.106;-2.088;2023-06-01T13:40:12;2.03;;;1.20;;
17079;SDS011;8655;57.106;-2.088;2023-06-01T13:42:38;2.60;;;1.05;;
17079;SDS011;8655;57.106;-2.088;2023-06-01T13:45:04;1.73;;;0.95;;
17079;SDS011;8655;57.106;-2.088;2023-06-01T13:47:30;2.40;;;0.90;;
17079;SDS011;8655;57.106;-2.088;2023-06-01T13:49:55;1.50;;;0.83;;
17079;SDS011;8655;57.106;-2.088;2023-06-01T13:52:21;1.50;;;1.00;;
17079;SDS011;8655;57.106;-2.088;2023-06-01T13:54:50;2.17;;;0.90;;
17079;SDS011;8655;57.106;-2.088;2023-06-01T13:57:16;2.17;;;0.90;;
17079;SDS011;8655;57.106;-2.088;2023-06-01T13:59:42;1.35;;;1.10;;
17079;SDS011;8655;57.106;-2.088;2023-06-01T14:02:08;1.45;;;1.00;;
17079;SDS011;8655;57.106;-2.088;2023-06-01T14:04:34;2.47;;;1.20;;
17079;SDS011;8655;57.106;-2.088;2023-06-01T14:06:59;1.47;;;0.93;;
17079;SDS011;8655;57.106;-2.088;2023-06-01T14:09:25;1.95;;;0.95;;
17079;SDS011;8655;57.106;-2.088;2023-06-01T14:11:51;1.53;;;1.03;;
17079;SDS011;8655;57.106;-2.088;2023-06-01T14:14:16;2.40;;;0.80;;
17079;SDS011;8655;57.106;-2.088;2023-06-01T14:16:42;4.13;;;1.27;;
17079;SDS011;8655;57.106;-2.088;2023-06-01T14:19:08;0.90;;;0.70;;
17079;SDS011;8655;57.106;-2.088;2023-06-01T14:21:33;1.07;;;0.90;;
17079;SDS011;8655;57.106;-2.088;2023-06-01T14:24:01;1.50;;;0.90;;
17079;SDS011;8655;57.106;-2.088;2023-06-01T14:26:27;2.30;;;1.00;;
17079;SDS011;8655;57.106;-2.088;2023-06-01T14:28:53;1.30;;;1.10;;
17079;SDS011;8655;57.106;-2.088;2023-06-01T14:31:19;2.10;;;1.03;;
17079;SDS011;8655;57.106;-2.088;2023-06-01T14:33:45;3.33;;;1.20;;
17079;SDS011;8655;57.106;-2.088;2023-06-01T14:36:11;2.90;;;1.23;;
17079;SDS011;8655;57.106;-2.088;2023-06-01T14:38:37;1.90;;;1.15;;
17079;SDS011;8655;57.106;-2.088;2023-06-01T14:41:03;2.07;;;1.00;;
17079;SDS011;8655;57.106;-2.088;2023-06-01T14:43:29;1.87;;;1.00;;
17079;SDS011;8655;57.106;-2.088;2023-06-01T14:45:55;3.17;;;1.20;;
17079;SDS011;8655;57.106;-2.088;2023-06-01T14:48:21;1.33;;;1.00;;
17079;SDS011;8655;57.106;-2.088;2023-06-01T14:50:47;2.17;;;1.10;;
17079;SDS011;8655;57.106;-2.088;2023-06-01T14:53:13;1.20;;;1.00;;
17079;SDS011;8655;57.106;-2.088;2023-06-01T14:55:39;1.50;;;0.90;;
17079;SDS011;8655;57.106;-2.088;2023-06-01T14:58:08;1.63;;;0.97;;
17079;SDS011;8655;57.106;-2.088;2023-06-01T15:00:35;1.48;;;1.13;;
17079;SDS011;8655;57.106;-2.088;2023-06-01T15:03:01;2.65;;;0.90;;
17079;SDS011;8655;57.106;-2.088;2023-06-01T15:05:28;1.30;;;0.90;;
17079;SDS011;8655;57.106;-2.088;2023-06-01T15:07:54;2.07;;;1.00;;
17079;SDS011;8655;57.106;-2.088;2023-06-01T15:10:19;2.43;;;1.13;;
17079;SDS011;8655;57.106;-2.088;2023-06-01T15:12:45;3.13;;;1.20;;
17079;SDS011;8655;57.106;-2.088;2023-06-01T15:15:12;1.77;;;1.10;;
17079;SDS011;8655;57.106;-2.088;2023-06-01T15:17:38;1.83;;;0.80;;
17079;SDS011;8655;57.106;-2.088;2023-06-01T15:20:04;1.70;;;1.00;;
17079;SDS011;8655;57.106;-2.088;2023-06-01T15:22:31;1.70;;;0.87;;
17079;SDS011;8655;57.106;-2.088;2023-06-01T15:24:57;2.97;;;1.30;;
17079;SDS011;8655;57.106;-2.088;2023-06-01T15:27:23;3.40;;;1.20;;
17079;SDS011;8655;57.106;-2.088;2023-06-01T15:29:48;1.80;;;0.87;;
17079;SDS011;8655;57.106;-2.088;2023-06-01T15:32:14;2.30;;;1.13;;
17079;SDS011;8655;57.106;-2.088;2023-06-01T15:34:40;3.03;;;0.90;;
17079;SDS011;8655;57.106;-2.088;2023-06-01T15:37:10;2.08;;;1.00;;
17079;SDS011;8655;57.106;-2.088;2023-06-01T15:39:36;3.17;;;1.23;;
17079;SDS011;8655;57.106;-2.088;2023-06-01T15:42:04;3.07;;;1.30;;
17079;SDS011;8655;57.106;-2.088;2023-06-01T15:44:33;2.23;;;1.13;;